Time;durP1;ratioP1;P1;durP2;ratioP2;P2;SDS_P1;SDS_P2;PMS_P1;PMS_P2;Temp;Humidity;BMP_temperature;BMP_pressure;BME280_temperature;BME280_humidity;BME280_pressure;Samples;Min_cycle;Max_cycle;Signal;HPM_P1;HPM_P2
2022/08/23 00:00:50;;;;;;;4.37;3.97;;;19.90;99.90;;;;;;6238255;28;20493;-66
2022/08/23 00:03:55;;;;;;;5.37;4.97;;;20.00;99.90;;;;;;6235752;28;20193;-66
2022/08/23 00:07:00;;;;;;;6.23;5.30;;;19.90;99.90;;;;;;6238279;28;20212;-65
2022/08/23 00:10:04;;;;;;;6.73;6.10;;;19.80;99.90;;;;;;6248719;28;20221;-65
2022/08/23 00:13:09;;;;;;;7.70;6.37;;;19.80;99.90;;;;;;6249554;28;20306;-65
2022/08/23 00:16:12;;;;;;;6.80;6.30;;;19.70;99.90;;;;;;6249713;28;20232;-65
2022/08/23 00:19:17;;;;;;;5.97;5.57;;;19.70;99.90;;;;;;6249281;28;20232;-65
2022/08/23 00:22:20;;;;;;;5.50;5.10;;;19.60;99.90;;;;;;6249676;28;20255;-65
2022/08/23 00:25:24;;;;;;;5.90;5.40;;;19.60;99.90;;;;;;6249287;28;20235;-65
2022/08/23 00:28:27;;;;;;;5.90;5.30;;;19.50;99.90;;;;;;6249419;28;20224;-65
2022/08/23 00:31:30;;;;;;;5.90;5.40;;;19.50;99.90;;;;;;6249534;28;20239;-65
2022/08/23 00:34:34;;;;;;;5.90;5.40;;;19.30;99.90;;;;;;6249620;28;20224;-65
2022/08/23 00:37:38;;;;;;;5.33;4.83;;;19.20;99.90;;;;;;6249145;28;20239;-65
2022/08/23 00:40:44;;;;;;;5.23;4.10;;;19.10;99.90;;;;;;6249485;28;20239;-65
2022/08/23 00:50:35;;;;;;;6.53;4.57;;;18.90;99.90;;;;;;6249120;28;20232;-65
2022/08/23 00:53:42;;;;;;;4.90;4.40;;;19.00;99.90;;;;;;6239655;28;20240;-65
2022/08/23 00:56:46;;;;;;;5.20;4.70;;;19.10;99.90;;;;;;6249200;28;20246;-65
2022/08/23 00:59:50;;;;;;;4.60;4.20;;;19.10;99.90;;;;;;6249410;28;20228;-64
2022/08/23 01:02:55;;;;;;;5.77;5.17;;;19.10;99.90;;;;;;6251884;28;20231;-64
2022/08/23 01:06:06;;;;;;;6.10;5.60;;;19.00;99.90;;;;;;6253617;28;20251;-64
2022/08/23 01:09:11;;;;;;;5.40;5.00;;;19.00;99.90;;;;;;6253847;28;20243;-64
2022/08/23 01:12:19;;;;;;;6.07;5.57;;;18.90;99.90;;;;;;6254230;28;20228;-64
2022/08/23 01:15:39;;;;;;;5.40;5.00;;;18.80;99.90;;;;;;6253384;28;20232;-66
2022/08/23 01:18:43;;;;;;;6.03;5.53;;;18.70;99.90;;;;;;6253104;28;20239;-64
2022/08/23 01:21:52;;;;;;;6.03;5.53;;;18.70;99.90;;;;;;6253498;28;20235;-64
2022/08/23 01:24:58;;;;;;;5.90;5.40;;;18.80;99.90;;;;;;6253225;28;20235;-63
2022/08/23 01:28:10;;;;;;;6.00;5.50;;;18.80;99.90;;;;;;6252599;28;20224;-63
2022/08/23 01:31:15;;;;;;;5.90;5.30;;;18.80;99.90;;;;;;6252847;28;20234;-63
2022/08/23 01:34:18;;;;;;;5.87;5.40;;;18.80;99.90;;;;;;6252551;28;20246;-63
2022/08/23 01:37:21;;;;;;;5.77;5.27;;;18.90;99.90;;;;;;6252876;28;20232;-63
2022/08/23 01:40:27;;;;;;;9.57;5.80;;;18.90;99.90;;;;;;6252577;28;20228;-63
2022/08/23 01:43:30;;;;;;;6.23;5.57;;;18.90;99.90;;;;;;6252847;28;20228;-63
2022/08/23 01:46:33;;;;;;;5.33;4.83;;;18.80;99.90;;;;;;6252528;28;20228;-63
2022/08/23 01:49:37;;;;;;;6.43;5.83;;;18.80;99.90;;;;;;6252587;28;20224;-63
2022/08/23 01:52:41;;;;;;;6.47;5.87;;;18.80;99.90;;;;;;6251787;28;20248;-64
2022/08/23 01:55:50;;;;;;;6.30;5.80;;;18.80;99.90;;;;;;6247825;28;20263;-63
2022/08/23 01:58:53;;;;;;;5.30;4.80;;;18.70;99.90;;;;;;6251954;28;20233;-63
2022/08/23 02:01:56;;;;;;;5.90;5.30;;;18.70;99.90;;;;;;6252143;28;20225;-63
2022/08/23 02:04:59;;;;;;;5.83;5.33;;;18.70;99.90;;;;;;6252023;28;20307;-63
2022/08/23 02:11:24;;;;;;;4.97;4.57;;;18.70;99.90;;;;;;6251357;28;20228;-63
2022/08/23 02:14:27;;;;;;;5.60;5.10;;;18.70;99.90;;;;;;6252099;28;20224;-63
2022/08/23 02:17:30;;;;;;;5.90;5.40;;;18.70;99.90;;;;;;6252206;28;20699;-63
2022/08/23 02:20:33;;;;;;;5.53;5.03;;;18.70;99.90;;;;;;6251918;28;20229;-63
2022/08/23 02:23:38;;;;;;;5.93;5.43;;;18.80;99.90;;;;;;6251848;28;20232;-63
2022/08/23 02:26:46;;;;;;;5.77;5.23;;;18.80;99.90;;;;;;6251809;28;20331;-63
2022/08/23 02:29:58;;;;;;;6.20;5.60;;;18.70;99.90;;;;;;6251951;28;20229;-63
2022/08/23 02:33:04;;;;;;;5.67;5.13;;;18.70;99.90;;;;;;6251557;28;20231;-63
2022/08/23 02:36:08;;;;;;;5.53;5.13;;;18.70;99.90;;;;;;6251181;28;20224;-63
2022/08/23 02:39:13;;;;;;;5.80;5.30;;;18.70;99.90;;;;;;6251623;28;20314;-63
2022/08/23 02:42:18;;;;;;;6.50;5.77;;;18.70;99.90;;;;;;6251555;28;20235;-63
2022/08/23 02:45:21;;;;;;;6.00;5.30;;;18.70;99.90;;;;;;6251654;28;20229;-64
2022/08/23 02:48:24;;;;;;;5.63;5.10;;;18.70;99.90;;;;;;6251158;28;20547;-63
2022/08/23 02:51:27;;;;;;;6.43;5.93;;;18.80;99.90;;;;;;6251117;28;20676;-63
2022/08/23 02:54:30;;;;;;;4.93;4.33;;;18.70;99.90;;;;;;6250948;28;20342;-63
2022/08/23 02:57:35;;;;;;;5.57;5.10;;;18.70;99.90;;;;;;6250890;28;20367;-63
2022/08/23 03:00:38;;;;;;;6.93;5.53;;;18.70;99.90;;;;;;6250868;28;20549;-64
2022/08/23 03:03:42;;;;;;;5.50;5.00;;;18.60;99.90;;;;;;6250603;28;20220;-64
2022/08/23 03:06:45;;;;;;;4.47;4.17;;;18.60;99.90;;;;;;6250785;28;20236;-64
2022/08/23 03:09:48;;;;;;;3.40;3.10;;;18.70;99.90;;;;;;6250403;28;20238;-63
2022/08/23 03:12:52;;;;;;;2.50;2.40;;;18.70;99.90;;;;;;6250346;28;20366;-63
2022/08/23 03:15:56;;;;;;;2.00;1.80;;;18.70;99.90;;;;;;6250457;28;20699;-64
2022/08/23 03:19:01;;;;;;;2.00;1.23;;;18.60;99.90;;;;;;6250324;28;20342;-63
2022/08/23 03:22:04;;;;;;;1.30;1.07;;;18.60;99.90;;;;;;6250647;28;20675;-63
2022/08/23 03:25:08;;;;;;;2.03;1.20;;;18.60;99.90;;;;;;6249950;28;20236;-64
2022/08/23 03:28:12;;;;;;;1.80;1.20;;;18.50;99.90;;;;;;6250134;28;20225;-64
2022/08/23 03:31:16;;;;;;;1.40;1.30;;;18.50;99.90;;;;;;6250207;28;20770;-64
2022/08/23 03:34:19;;;;;;;1.13;1.03;;;18.50;99.90;;;;;;6249674;28;20251;-64
2022/08/23 03:37:22;;;;;;;1.60;1.33;;;18.50;99.90;;;;;;6249388;28;20243;-64
2022/08/23 03:40:26;;;;;;;1.20;1.10;;;18.50;99.90;;;;;;6250133;28;20224;-64
2022/08/23 03:43:30;;;;;;;1.97;1.47;;;18.50;99.90;;;;;;6249628;28;20363;-64
2022/08/23 03:46:34;;;;;;;1.67;1.37;;;18.50;99.90;;;;;;6250026;28;20235;-63
2022/08/23 03:49:37;;;;;;;1.27;1.10;;;18.50;99.90;;;;;;6249451;28;20243;-63
2022/08/23 03:52:40;;;;;;;1.93;1.33;;;18.50;99.90;;;;;;6249918;28;20244;-63
2022/08/23 03:55:43;;;;;;;1.67;1.20;;;18.40;99.90;;;;;;6249974;28;20652;-63
2022/08/23 03:58:48;;;;;;;2.07;1.40;;;18.40;99.90;;;;;;6249747;28;20236;-63
2022/08/23 04:01:52;;;;;;;1.40;1.03;;;18.50;99.90;;;;;;6249875;28;20243;-63
2022/08/23 04:04:56;;;;;;;1.77;1.03;;;18.40;99.90;;;;;;6240460;28;20232;-64
2022/08/23 04:08:01;;;;;;;0.97;0.90;;;18.40;99.90;;;;;;6249942;28;20246;-63
2022/08/23 04:11:05;;;;;;;1.27;1.07;;;18.40;99.90;;;;;;6250134;28;20234;-63
2022/08/23 04:14:12;;;;;;;1.87;0.90;;;18.40;99.90;;;;;;6249393;28;20236;-63
2022/08/23 04:17:16;;;;;;;2.83;1.10;;;18.40;99.90;;;;;;6249593;28;20699;-63
2022/08/23 04:20:19;;;;;;;1.00;0.90;;;18.40;99.90;;;;;;6249888;28;20229;-68
2022/08/23 04:23:23;;;;;;;1.77;1.20;;;18.30;99.90;;;;;;6249630;28;20221;-63
2022/08/23 04:26:27;;;;;;;3.23;1.13;;;18.30;99.90;;;;;;6249523;28;20669;-63
2022/08/23 04:29:33;;;;;;;0.97;0.93;;;18.20;99.90;;;;;;6249696;28;20236;-63
2022/08/23 04:32:37;;;;;;;1.60;1.17;;;18.20;99.90;;;;;;6249656;28;20575;-63
2022/08/23 04:35:41;;;;;;;2.20;1.07;;;18.20;99.90;;;;;;6249747;28;20240;-63
2022/08/23 04:38:44;;;;;;;0.97;0.90;;;18.20;99.90;;;;;;6254087;28;20228;-63
2022/08/23 04:45:10;;;;;;;1.80;1.50;;;18.00;99.90;;;;;;6253939;28;20498;-63
2022/08/23 04:48:13;;;;;;;1.37;0.87;;;18.00;99.90;;;;;;6254138;28;20232;-64
2022/08/23 04:51:17;;;;;;;1.63;1.00;;;18.00;99.90;;;;;;6253602;28;20809;-64
2022/08/23 04:54:21;;;;;;;1.10;1.00;;;18.10;99.90;;;;;;6253426;28;20688;-64
2022/08/23 04:57:25;;;;;;;2.93;1.10;;;18.00;99.90;;;;;;6253476;28;20228;-64
2022/08/23 05:00:29;;;;;;;1.40;1.10;;;18.00;99.90;;;;;;6253461;28;20224;-64
2022/08/23 05:03:33;;;;;;;1.13;1.00;;;18.00;99.90;;;;;;6253124;28;20231;-63
2022/08/23 05:06:36;;;;;;;1.37;0.77;;;18.10;99.90;;;;;;6228949;28;20591;-64
2022/08/23 05:09:39;;;;;;;2.70;0.83;;;18.10;99.90;;;;;;6219959;28;20229;-64
2022/08/23 05:12:42;;;;;;;1.57;1.30;;;18.10;99.90;;;;;;6228645;28;20307;-64
2022/08/23 05:15:50;;;;;;;1.37;0.70;;;18.10;99.90;;;;;;6228209;28;20233;-64
2022/08/23 05:18:53;;;;;;;2.30;0.80;;;18.10;99.90;;;;;;6230846;28;20217;-64
2022/08/23 05:21:56;;;;;;;1.57;1.30;;;18.10;99.90;;;;;;6238705;28;20204;-64
2022/08/23 05:24:59;;;;;;;1.37;0.93;;;18.20;99.90;;;;;;6252584;28;20231;-64
2022/08/23 05:28:03;;;;;;;2.00;1.07;;;18.30;99.90;;;;;;6252878;28;20205;-64
2022/08/23 05:31:11;;;;;;;1.37;1.27;;;18.30;99.90;;;;;;6253134;28;20205;-64
2022/08/23 05:34:15;;;;;;;1.87;1.10;;;18.40;99.90;;;;;;6252848;28;20228;-64
2022/08/23 05:37:24;;;;;;;1.40;1.20;;;18.40;99.90;;;;;;6252270;28;20341;-65
2022/08/23 05:40:28;;;;;;;2.23;0.80;;;18.30;99.90;;;;;;6252613;28;20551;-64
2022/08/23 05:43:31;;;;;;;1.63;0.80;;;18.30;99.90;;;;;;6252543;28;20576;-64
2022/08/23 05:46:37;;;;;;;1.30;1.20;;;18.30;99.90;;;;;;6252329;28;20240;-64
2022/08/23 05:49:41;;;;;;;0.90;0.70;;;18.30;99.90;;;;;;6252556;28;20228;-64
2022/08/23 05:52:44;;;;;;;4.80;1.30;;;18.40;99.90;;;;;;6252340;28;20235;-64
2022/08/23 05:55:52;;;;;;;1.00;0.60;;;18.40;99.90;;;;;;6251819;28;20233;-64
2022/08/23 05:58:58;;;;;;;0.70;0.67;;;18.60;99.90;;;;;;6252401;28;20684;-64
2022/08/23 06:02:04;;;;;;;0.80;0.57;;;18.50;99.90;;;;;;6251644;28;20240;-64
2022/08/23 06:05:09;;;;;;;1.10;0.80;;;18.60;99.90;;;;;;6251622;28;20240;-65
2022/08/23 06:08:12;;;;;;;1.07;0.70;;;18.60;99.90;;;;;;6251763;28;20691;-64
2022/08/23 06:11:18;;;;;;;0.73;0.67;;;18.50;99.90;;;;;;6242317;28;20232;-64
2022/08/23 06:14:22;;;;;;;3.10;1.10;;;18.40;99.90;;;;;;6251197;28;20247;-64
2022/08/23 06:17:27;;;;;;;2.90;1.20;;;18.30;99.90;;;;;;6252074;28;20566;-64
2022/08/23 06:20:30;;;;;;;3.63;0.80;;;18.20;99.90;;;;;;6251764;28;20239;-64
2022/08/23 06:23:33;;;;;;;10.93;2.17;;;18.20;99.90;;;;;;6251541;28;20287;-65
2022/08/23 06:26:38;;;;;;;4.77;1.67;;;18.20;99.90;;;;;;6251287;28;20232;-65
2022/08/23 06:29:44;;;;;;;2.40;1.00;;;18.20;99.90;;;;;;6251565;28;21097;-65
2022/08/23 06:32:50;;;;;;;1.13;1.00;;;18.20;99.90;;;;;;6251662;28;20224;-65
2022/08/23 06:36:03;;;;;;;9.00;3.97;;;18.30;99.90;;;;;;6250884;28;20242;-65
2022/08/23 06:39:08;;;;;;;1.60;1.10;;;18.40;99.90;;;;;;6250702;28;20240;-65
2022/08/23 06:42:13;;;;;;;3.00;1.30;;;18.50;99.90;;;;;;6250930;28;20233;-65
2022/08/23 06:45:36;;;;;;;2.80;1.00;;;18.60;99.90;;;;;;6250655;28;20240;-65
2022/08/23 06:48:43;;;;;;;49.73;5.97;;;18.70;99.90;;;;;;6251031;28;20240;-65
2022/08/23 06:51:50;;;;;;;2.00;1.43;;;18.80;99.90;;;;;;6250925;28;20224;-65
2022/08/23 06:54:54;;;;;;;5.93;1.73;;;18.90;99.90;;;;;;6250608;28;20559;-65
2022/08/23 06:58:00;;;;;;;2.23;0.87;;;19.00;99.90;;;;;;6251282;28;20197;-65
2022/08/23 07:01:11;;;;;;;2.30;1.63;;;19.10;99.90;;;;;;6250310;28;20208;-65
2022/08/23 07:04:38;;;;;;;2.03;1.13;;;19.10;99.90;;;;;;6250608;28;21964;-65
2022/08/23 07:07:42;;;;;;;2.43;1.13;;;19.20;99.90;;;;;;6247594;28;20251;-65
2022/08/23 07:10:46;;;;;;;3.67;1.80;;;19.20;99.90;;;;;;6242612;28;20229;-66
2022/08/23 07:13:51;;;;;;;10.93;1.80;;;19.30;99.90;;;;;;6223417;28;20216;-65
2022/08/23 07:16:56;;;;;;;5.10;1.40;;;19.30;99.90;;;;;;6230992;28;20232;-65
2022/08/23 07:20:01;;;;;;;15.50;3.40;;;19.30;99.90;;;;;;6225855;28;20240;-65
2022/08/23 07:23:04;;;;;;;3.03;1.83;;;19.30;99.90;;;;;;6225566;28;20233;-65
2022/08/23 07:26:11;;;;;;;3.10;1.07;;;19.40;99.90;;;;;;6235710;28;20239;-64
2022/08/23 07:29:16;;;;;;;36.10;7.47;;;19.30;99.90;;;;;;6249910;28;20247;-64
2022/08/23 07:32:19;;;;;;;15.63;3.80;;;19.30;99.90;;;;;;6250253;28;20228;-64
2022/08/23 07:35:24;;;;;;;3.17;1.30;;;19.30;99.90;;;;;;6249577;28;20236;-64
2022/08/23 07:38:27;;;;;;;5.30;1.07;;;19.20;99.90;;;;;;6249634;28;20225;-64
2022/08/23 07:41:34;;;;;;;2.30;1.10;;;19.20;99.90;;;;;;6250124;28;20251;-64
2022/08/23 07:44:37;;;;;;;2.03;1.30;;;19.20;99.90;;;;;;6249678;28;20304;-65
2022/08/23 07:47:41;;;;;;;1.80;0.63;;;19.30;99.90;;;;;;6249719;28;20235;-65
2022/08/23 07:50:54;;;;;;;1.60;0.90;;;19.40;99.90;;;;;;6249553;28;20232;-65
2022/08/23 07:54:01;;;;;;;2.00;0.90;;;19.60;99.90;;;;;;6248343;28;20363;-64
2022/08/23 07:57:04;;;;;;;1.07;0.70;;;19.80;99.90;;;;;;6231140;28;20573;-64
2022/08/23 08:00:09;;;;;;;3.27;1.37;;;20.00;99.90;;;;;;6235721;28;20225;-65
2022/08/23 08:03:13;;;;;;;1.53;0.67;;;20.10;99.90;;;;;;6238234;28;20225;-66
2022/08/23 08:06:20;;;;;;;1.70;1.17;;;20.20;99.90;;;;;;6235307;28;20318;-65
2022/08/23 08:09:23;;;;;;;2.10;1.60;;;20.40;99.90;;;;;;6237990;28;20239;-65
2022/08/23 08:12:28;;;;;;;3.30;1.13;;;20.60;99.90;;;;;;6240964;28;20224;-64
2022/08/23 08:15:31;;;;;;;1.80;0.87;;;20.90;99.90;;;;;;6240926;28;20527;-64
2022/08/23 08:18:34;;;;;;;1.60;0.90;;;21.40;99.90;;;;;;6238027;28;20225;-66
2022/08/23 08:21:39;;;;;;;4.70;1.57;;;23.60;99.90;;;;;;6220610;28;20240;-65
2022/08/23 08:24:44;;;;;;;3.40;0.80;;;27.00;97.80;;;;;;6230096;28;20633;-67
2022/08/23 08:27:47;;;;;;;6.20;1.10;;;30.10;88.50;;;;;;6251549;28;20664;-66
2022/08/23 08:30:51;;;;;;;1.10;0.50;;;31.10;77.10;;;;;;6254306;28;20636;-67
2022/08/23 08:33:54;;;;;;;1.00;0.47;;;30.20;74.80;;;;;;6254076;28;20211;-67
2022/08/23 08:36:59;;;;;;;1.77;0.70;;;28.60;77.80;;;;;;6253605;28;20240;-67
2022/08/23 08:40:03;;;;;;;14.17;2.97;;;27.10;82.00;;;;;;6254759;28;20300;-67
2022/08/23 08:43:21;;;;;;;21.70;3.00;;;26.00;86.90;;;;;;6254438;28;20218;-67
2022/08/23 08:46:32;;;;;;;3.90;1.60;;;25.20;90.50;;;;;;6242120;28;20240;-67
2022/08/23 08:49:40;;;;;;;1.87;0.70;;;24.60;92.20;;;;;;6254211;28;20235;-67
2022/08/23 08:52:48;;;;;;;1.90;0.57;;;24.10;93.40;;;;;;6254149;28;20251;-67
2022/08/23 08:55:56;;;;;;;2.27;0.60;;;23.80;93.90;;;;;;6253911;28;20232;-67
2022/08/23 08:59:05;;;;;;;2.27;0.60;;;23.40;94.90;;;;;;6255127;28;20683;-68
2022/08/23 09:02:18;;;;;;;1.40;0.70;;;23.40;95.10;;;;;;6254433;28;20231;-70
2022/08/23 09:05:39;;;;;;;3.27;0.60;;;23.30;95.30;;;;;;6251855;28;20286;-68
2022/08/23 09:08:59;;;;;;;1.77;0.90;;;23.30;95.80;;;;;;6255186;28;20307;-68
2022/08/23 09:12:13;;;;;;;2.27;0.83;;;23.20;95.60;;;;;;6250423;28;20322;-68
2022/08/23 09:15:28;;;;;;;1.60;0.90;;;23.10;95.60;;;;;;6252672;28;20294;-68
2022/08/23 09:18:35;;;;;;;2.87;0.90;;;23.00;97.10;;;;;;6253685;28;20244;-67
2022/08/23 09:21:44;;;;;;;1.57;0.63;;;23.10;96.60;;;;;;6249628;28;20238;-68
2022/08/23 09:24:48;;;;;;;1.03;0.57;;;23.00;96.60;;;;;;6243557;28;20658;-67
2022/08/23 09:27:51;;;;;;;2.20;0.70;;;22.90;96.30;;;;;;6251906;28;20227;-68
2022/08/23 09:30:58;;;;;;;3.20;0.90;;;22.90;96.20;;;;;;6251551;28;20213;-68
2022/08/23 09:34:01;;;;;;;1.70;1.20;;;22.90;96.30;;;;;;6251947;28;20200;-68
2022/08/23 09:37:13;;;;;;;0.90;0.47;;;23.20;96.60;;;;;;6251009;28;20327;-67
2022/08/23 09:40:23;;;;;;;1.10;0.50;;;23.50;95.20;;;;;;6252318;28;20228;-68
2022/08/23 09:43:30;;;;;;;1.33;0.70;;;23.90;94.00;;;;;;6250886;28;20534;-66
2022/08/23 09:46:37;;;;;;;1.20;0.70;;;24.20;93.20;;;;;;6251227;28;20236;-66
2022/08/23 09:49:42;;;;;;;8.80;1.27;;;24.60;92.10;;;;;;6250791;28;20229;-67
2022/08/23 09:52:49;;;;;;;2.30;0.90;;;25.20;92.30;;;;;;6250976;28;20248;-67
2022/08/23 09:55:56;;;;;;;2.00;1.00;;;25.60;88.90;;;;;;6250958;28;20866;-69
2022/08/23 09:59:00;;;;;;;1.70;1.20;;;25.90;88.60;;;;;;6252116;28;20710;-67
2022/08/23 10:02:05;;;;;;;0.90;0.53;;;26.20;87.40;;;;;;6250830;28;20231;-67
2022/08/23 10:05:19;;;;;;;1.63;0.57;;;26.40;86.00;;;;;;6249875;28;20545;-67
2022/08/23 10:08:27;;;;;;;2.13;0.80;;;26.70;84.00;;;;;;6248838;28;20548;-67
2022/08/23 10:11:35;;;;;;;3.53;0.70;;;26.70;81.20;;;;;;6250235;28;20228;-67
2022/08/23 10:14:38;;;;;;;0.90;0.50;;;26.90;81.30;;;;;;6250401;28;20319;-67
2022/08/23 10:17:53;;;;;;;2.40;0.57;;;27.00;79.00;;;;;;6251656;28;20235;-67
2022/08/23 10:21:01;;;;;;;4.10;0.93;;;27.10;79.80;;;;;;6251090;28;20232;-67
2022/08/23 10:24:15;;;;;;;1.00;0.70;;;27.00;82.70;;;;;;6251644;28;20227;-67
2022/08/23 10:31:01;;;;;;;1.83;0.90;;;26.40;85.20;;;;;;6251327;28;20238;-67
2022/08/23 10:34:19;;;;;;;1.13;0.50;;;26.00;85.30;;;;;;6251789;28;20258;-67
2022/08/23 10:37:33;;;;;;;0.97;0.57;;;25.80;87.70;;;;;;6250819;28;20247;-67
2022/08/23 10:40:44;;;;;;;1.53;0.60;;;25.40;88.90;;;;;;6251672;28;20234;-67
2022/08/23 10:43:57;;;;;;;1.80;0.80;;;24.50;90.90;;;;;;6251166;28;20578;-68
2022/08/23 10:47:19;;;;;;;1.53;0.70;;;24.10;91.90;;;;;;6252325;28;20233;-68
2022/08/23 10:50:22;;;;;;;1.10;0.90;;;24.00;92.60;;;;;;6252116;28;20232;-68
2022/08/23 10:53:34;;;;;;;1.03;0.60;;;23.90;92.90;;;;;;6251405;28;20311;-68
2022/08/23 10:56:38;;;;;;;1.00;0.50;;;23.70;93.90;;;;;;6250981;28;20232;-68
2022/08/23 10:59:54;;;;;;;1.00;0.60;;;23.50;94.50;;;;;;6250631;28;20224;-68
2022/08/23 11:03:10;;;;;;;1.87;0.50;;;23.50;94.60;;;;;;6250174;28;20228;-67
2022/08/23 11:06:43;;;;;;;0.80;0.53;;;23.30;95.10;;;;;;6250719;28;20233;-67
2022/08/23 11:09:58;;;;;;;1.27;0.50;;;23.10;95.50;;;;;;6250403;28;20282;-67
2022/08/23 11:13:08;;;;;;;1.77;0.60;;;23.10;96.30;;;;;;6250598;28;20216;-67
2022/08/23 11:16:24;;;;;;;6.50;1.90;;;23.00;96.00;;;;;;6250629;28;20239;-67
2022/08/23 11:19:47;;;;;;;2.70;1.10;;;22.90;96.20;;;;;;6250092;28;20673;-67
2022/08/23 11:23:13;;;;;;;3.63;1.30;;;22.80;93.70;;;;;;6250147;28;20244;-67
2022/08/23 11:27:01;;;;;;;1.30;1.17;;;22.70;92.20;;;;;;6250466;28;20237;-67
2022/08/23 11:30:45;;;;;;;1.67;1.10;;;22.70;91.40;;;;;;6240660;28;20264;-67
2022/08/23 11:33:59;;;;;;;2.13;1.60;;;22.80;90.50;;;;;;6250043;28;20255;-67
2022/08/23 11:37:27;;;;;;;2.03;1.70;;;22.80;91.10;;;;;;6249045;28;20673;-67
2022/08/23 11:41:05;;;;;;;1.60;1.50;;;22.80;90.40;;;;;;6249624;28;20363;-67
2022/08/23 11:44:27;;;;;;;3.07;2.00;;;22.80;90.20;;;;;;6248896;28;20228;-67
2022/08/23 11:47:41;;;;;;;1.50;1.40;;;22.70;90.00;;;;;;6249334;28;20275;-67
2022/08/23 11:51:22;;;;;;;1.97;1.60;;;22.70;89.70;;;;;;6249731;28;20665;-67
2022/08/23 11:54:39;;;;;;;2.60;1.20;;;22.70;89.40;;;;;;6240622;28;20232;-67
2022/08/23 11:58:04;;;;;;;3.00;1.00;;;22.70;90.20;;;;;;6249506;28;20243;-67
2022/08/23 12:01:10;;;;;;;1.47;1.23;;;22.80;90.10;;;;;;6249986;28;20218;-67
2022/08/23 12:04:33;;;;;;;1.70;1.40;;;22.80;88.90;;;;;;6250076;28;20303;-67
2022/08/23 12:07:52;;;;;;;1.97;1.67;;;23.00;89.70;;;;;;6249748;28;20224;-68
2022/08/23 12:11:15;;;;;;;1.90;1.20;;;23.20;88.60;;;;;;6249661;28;20695;-67
2022/08/23 12:14:36;;;;;;;2.10;1.37;;;23.30;88.70;;;;;;6225673;28;20236;-67
2022/08/23 12:18:12;;;;;;;1.47;1.20;;;23.40;88.70;;;;;;6227578;28;20234;-67
2022/08/23 12:21:20;;;;;;;1.63;1.53;;;23.50;88.90;;;;;;6230938;28;20249;-67
2022/08/23 12:24:31;;;;;;;1.30;1.20;;;23.50;89.70;;;;;;6225023;28;20265;-67
2022/08/23 12:27:38;;;;;;;2.20;1.33;;;23.60;88.00;;;;;;6224957;28;20340;-67
2022/08/23 12:30:55;;;;;;;10.80;2.50;;;23.60;87.90;;;;;;6224779;28;20237;-67
2022/08/23 12:34:12;;;;;;;8.57;2.50;;;23.60;87.30;;;;;;6225355;28;20209;-68
2022/08/23 12:37:28;;;;;;;2.50;1.63;;;23.60;87.70;;;;;;6224651;28;20233;-68
2022/08/23 12:40:36;;;;;;;2.23;1.20;;;23.60;87.30;;;;;;6225085;28;20236;-68
2022/08/23 12:44:00;;;;;;;1.50;1.30;;;23.40;87.40;;;;;;6224898;28;20240;-68
2022/08/23 12:47:13;;;;;;;1.40;1.20;;;23.40;87.40;;;;;;6229757;28;20217;-68
2022/08/23 12:50:26;;;;;;;1.77;1.60;;;23.40;87.70;;;;;;6225226;28;20241;-67
2022/08/23 12:53:38;;;;;;;1.63;1.53;;;23.30;88.00;;;;;;6224043;28;20247;-67
2022/08/23 12:56:50;;;;;;;2.37;1.20;;;23.30;88.00;;;;;;6225083;28;20225;-67
2022/08/23 13:00:04;;;;;;;3.00;1.40;;;23.30;88.30;;;;;;6229622;28;20239;-67
2022/08/23 13:03:22;;;;;;;3.13;1.43;;;23.10;88.00;;;;;;6229617;28;20256;-66
2022/08/23 13:06:30;;;;;;;1.40;1.30;;;23.00;88.20;;;;;;6253042;28;20238;-66
2022/08/23 13:09:37;;;;;;;1.70;1.60;;;22.90;88.20;;;;;;6254667;28;20229;-66
2022/08/23 13:12:42;;;;;;;6.07;1.77;;;22.90;88.30;;;;;;6255033;28;20550;-66
2022/08/23 13:15:51;;;;;;;2.70;1.50;;;22.80;89.40;;;;;;6253811;28;20236;-66
2022/08/23 13:18:56;;;;;;;2.40;1.50;;;22.80;90.40;;;;;;6253767;28;20352;-66
2022/08/23 13:22:13;;;;;;;1.40;1.30;;;22.90;89.40;;;;;;6253825;28;20205;-66
2022/08/23 13:25:25;;;;;;;1.57;1.47;;;23.00;89.30;;;;;;6236773;28;20239;-66
2022/08/23 13:28:35;;;;;;;2.27;1.30;;;23.10;89.50;;;;;;6238530;28;20234;-66
2022/08/23 13:31:59;;;;;;;1.87;1.40;;;23.30;88.70;;;;;;6245359;28;20225;-66
2022/08/23 13:35:31;;;;;;;2.33;1.40;;;23.60;89.00;;;;;;6236412;28;20240;-66
2022/08/23 13:38:36;;;;;;;2.00;1.60;;;23.90;86.70;;;;;;6243426;28;20253;-66
2022/08/23 13:41:43;;;;;;;4.00;1.70;;;24.10;85.80;;;;;;6246085;28;20310;-66
2022/08/23 13:44:47;;;;;;;1.40;1.30;;;24.20;85.40;;;;;;6234469;28;20229;-66
2022/08/23 13:47:55;;;;;;;1.37;1.27;;;24.30;83.80;;;;;;6246753;28;20642;-65
2022/08/23 13:51:27;;;;;;;1.33;1.20;;;24.60;84.60;;;;;;6247957;28;20232;-65
2022/08/23 13:54:32;;;;;;;1.50;1.40;;;24.70;83.60;;;;;;6244581;28;20326;-67
2022/08/23 13:57:39;;;;;;;1.30;1.20;;;24.70;81.90;;;;;;6256252;28;20232;-66
2022/08/23 14:00:46;;;;;;;2.67;1.00;;;24.70;81.90;;;;;;6238376;28;20232;-66
2022/08/23 14:03:57;;;;;;;1.60;1.37;;;24.80;81.70;;;;;;6238906;28;20279;-66
2022/08/23 14:07:01;;;;;;;1.93;1.37;;;24.90;81.60;;;;;;6252553;28;20223;-66
2022/08/23 14:10:05;;;;;;;1.30;1.20;;;24.70;80.80;;;;;;6239977;28;20206;-66
2022/08/23 14:13:09;;;;;;;2.07;1.50;;;24.60;79.40;;;;;;6253234;28;20196;-66
2022/08/23 14:16:17;;;;;;;2.43;1.27;;;24.50;81.00;;;;;;6245014;28;20232;-66
2022/08/23 14:19:42;;;;;;;1.47;1.20;;;24.50;81.30;;;;;;6246104;28;20370;-65
2022/08/23 14:23:05;;;;;;;1.83;1.00;;;24.40;81.30;;;;;;6245041;28;20247;-65
2022/08/23 14:26:18;;;;;;;2.23;1.20;;;24.40;80.70;;;;;;6241320;28;20233;-65
2022/08/23 14:29:22;;;;;;;1.40;1.00;;;24.20;80.30;;;;;;6238464;28;20228;-65
2022/08/23 14:32:27;;;;;;;1.20;1.10;;;23.90;81.50;;;;;;6241157;28;20653;-65
2022/08/23 14:35:31;;;;;;;1.13;0.90;;;23.70;81.90;;;;;;6245587;28;20241;-65
2022/08/23 14:38:34;;;;;;;1.47;1.00;;;23.60;82.80;;;;;;6237684;28;20335;-65
2022/08/23 14:41:38;;;;;;;1.30;0.90;;;23.50;82.90;;;;;;6236182;28;20562;-65
2022/08/23 14:44:41;;;;;;;2.23;1.30;;;23.30;82.30;;;;;;6238849;28;20237;-65
2022/08/23 14:47:45;;;;;;;3.10;1.50;;;23.20;83.30;;;;;;6245308;28;20253;-65
2022/08/23 14:50:49;;;;;;;2.20;1.47;;;23.20;84.10;;;;;;6243441;28;20224;-65
2022/08/23 14:53:53;;;;;;;1.97;1.10;;;23.10;83.70;;;;;;6244631;28;20229;-65
2022/08/23 14:56:56;;;;;;;4.20;1.20;;;23.10;84.60;;;;;;6229286;28;20323;-65
2022/08/23 15:00:00;;;;;;;1.43;0.80;;;23.10;84.70;;;;;;6252402;28;20355;-65
2022/08/23 15:03:08;;;;;;;1.40;0.93;;;23.10;85.70;;;;;;6235910;28;20233;-66
2022/08/23 15:06:13;;;;;;;1.00;0.90;;;23.10;84.70;;;;;;6251473;28;20239;-66
2022/08/23 15:09:16;;;;;;;1.60;1.10;;;23.20;85.10;;;;;;6234840;28;20891;-66
2022/08/23 15:12:20;;;;;;;1.37;0.80;;;23.20;85.30;;;;;;6248097;28;20224;-65
2022/08/23 15:15:44;;;;;;;2.40;1.30;;;23.20;85.10;;;;;;6250658;28;20681;-66
2022/08/23 15:18:50;;;;;;;1.00;0.90;;;23.20;85.10;;;;;;6250593;28;20232;-65
2022/08/23 15:21:53;;;;;;;1.53;1.10;;;23.20;84.70;;;;;;6249984;28;20215;-65
2022/08/23 15:24:56;;;;;;;1.03;0.93;;;23.20;85.10;;;;;;6251592;28;20224;-65
2022/08/23 15:28:00;;;;;;;2.10;1.10;;;23.20;85.10;;;;;;6251093;28;20293;-66
2022/08/23 15:31:04;;;;;;;1.40;1.00;;;23.20;85.30;;;;;;6250949;28;20204;-65
2022/08/23 15:34:09;;;;;;;1.10;0.83;;;23.20;84.20;;;;;;6250641;28;20212;-65
2022/08/23 15:37:14;;;;;;;1.60;1.03;;;23.20;83.30;;;;;;6250990;28;20240;-65
2022/08/23 15:40:19;;;;;;;1.00;0.90;;;23.10;84.20;;;;;;6246995;28;20637;-65
2022/08/23 15:43:24;;;;;;;1.10;1.00;;;23.10;83.70;;;;;;6251879;28;20317;-65
2022/08/23 15:46:38;;;;;;;3.03;1.10;;;23.00;83.30;;;;;;6252514;28;20243;-64
2022/08/23 15:49:42;;;;;;;1.47;0.83;;;23.00;83.80;;;;;;6249236;28;20231;-64
2022/08/23 15:52:45;;;;;;;2.30;1.10;;;23.00;83.90;;;;;;6251193;28;20224;-67
2022/08/23 15:55:50;;;;;;;1.03;0.93;;;23.10;83.30;;;;;;6250271;28;20259;-67
2022/08/23 15:58:54;;;;;;;1.43;0.90;;;23.00;83.10;;;;;;6244199;28;20244;-67
2022/08/23 16:01:57;;;;;;;1.27;0.80;;;23.00;83.30;;;;;;6241891;28;20233;-65
2022/08/23 16:05:02;;;;;;;1.13;1.03;;;23.00;83.60;;;;;;6233471;28;20228;-66
2022/08/23 16:08:08;;;;;;;1.30;1.00;;;23.00;83.80;;;;;;6250394;28;20239;-66
2022/08/23 16:11:11;;;;;;;1.10;1.00;;;23.00;83.10;;;;;;6236546;28;20225;-66
2022/08/23 16:14:15;;;;;;;1.20;0.90;;;22.90;83.00;;;;;;6251556;28;20228;-64
2022/08/23 16:17:19;;;;;;;1.20;1.10;;;22.90;83.70;;;;;;6237478;28;20229;-66
2022/08/23 16:20:24;;;;;;;1.20;1.03;;;22.90;83.80;;;;;;6234021;28;20343;-66
2022/08/23 16:23:27;;;;;;;2.80;1.20;;;22.90;84.10;;;;;;6251134;28;20664;-67
2022/08/23 16:26:33;;;;;;;1.40;1.17;;;22.80;84.10;;;;;;6234570;28;20558;-69
2022/08/23 16:29:39;;;;;;;2.33;0.87;;;22.80;84.60;;;;;;6238978;28;20225;-68
2022/08/23 16:32:42;;;;;;;1.00;0.80;;;22.90;83.90;;;;;;6228679;28;20233;-67